KMEV/MEV METAR and TAF weather

Enter ICAO airport designator
Station Type Date Time Source
KMEV METAR 2019/07/20 05:15 UTC NOAA

KMEV 200515Z AUTO 10006KT 10SM CLR 19/10 A3002 RMK AO2


Station Type Date Time Source
KMEV Decoded METAR 2019/07/20 05:15 UTC NOAA

Station name not available
Jul 20, 2019 - 01:15 AM EDT / 2019.07.20 0515 UTC
Wind: from the E (100 degrees) at 7 MPH (6 KT):0
Visibility: 10 mile(s):0
Sky conditions: clear
Temperature: 66 F (19 C)
Dew Point: 50 F (10 C)
Relative Humidity: 55%
Pressure (altimeter): 30.02 in. Hg (1016 hPa)
ob: KMEV 200515Z AUTO 10006KT 10SM CLR 19/10 A3002 RMK AO2
cycle: 5

Station Type Date Time Source
KMEV TAF UTC NOAA

Error!

Example: see airport list